Time;durP1;ratioP1;P1;durP2;ratioP2;P2;SDS_P1;SDS_P2;PMS_P1;PMS_P2;Temp;Humidity;BMP_temperature;BMP_pressure;BME280_temperature;BME280_humidity;BME280_pressure;Samples;Min_cycle;Max_cycle;Signal;HPM_P1;HPM_P2
2023/10/09 00:02:19;;;;;;;12.88;7.28;;;19.20;99.90;;;;;;6492696;22;20000;-79
2023/10/09 00:04:51;;;;;;;16.65;7.78;;;19.30;99.90;;;;;;6490815;22;20015;-77
2023/10/09 00:07:23;;;;;;;17.77;8.50;;;19.20;99.90;;;;;;6492657;22;20316;-76
2023/10/09 00:10:03;;;;;;;15.18;7.57;;;19.10;99.90;;;;;;6490856;22;20015;-76
2023/10/09 00:12:34;;;;;;;17.42;7.32;;;19.20;99.90;;;;;;6492507;22;19996;-77
2023/10/09 00:15:11;;;;;;;19.70;7.50;;;19.10;99.90;;;;;;6492703;22;20011;-79
2023/10/09 00:17:46;;;;;;;18.02;7.38;;;19.10;99.90;;;;;;6492244;22;20462;-76
2023/10/09 00:20:19;;;;;;;16.38;7.18;;;19.00;99.90;;;;;;6492546;22;20004;-77
2023/10/09 00:22:51;;;;;;;19.92;7.57;;;18.90;99.90;;;;;;6490875;22;20458;-78
2023/10/09 00:25:24;;;;;;;19.67;7.45;;;18.90;99.90;;;;;;6490536;22;20015;-79
2023/10/09 00:27:55;;;;;;;23.80;7.88;;;18.90;99.90;;;;;;6492242;22;20696;-77
2023/10/09 00:30:29;;;;;;;17.10;6.95;;;18.90;99.90;;;;;;6489578;22;20011;-76
2023/10/09 00:33:07;;;;;;;17.35;6.75;;;18.80;99.90;;;;;;6492025;22;20084;-76
2023/10/09 00:35:54;;;;;;;18.20;6.97;;;18.80;99.90;;;;;;6489394;22;20012;-75
2023/10/09 00:38:33;;;;;;;13.38;6.38;;;18.80;99.90;;;;;;6491176;22;20002;-77
2023/10/09 00:41:10;;;;;;;16.97;6.73;;;18.80;99.90;;;;;;6491114;22;20010;-78
2023/10/09 00:43:43;;;;;;;17.17;7.50;;;18.80;99.90;;;;;;6491227;22;20007;-77
2023/10/09 00:49:02;;;;;;;16.05;7.00;;;18.70;99.90;;;;;;6502385;22;20327;-78
2023/10/09 00:51:36;;;;;;;15.20;6.72;;;18.80;99.90;;;;;;6492481;22;20380;-78
2023/10/09 00:54:08;;;;;;;13.05;6.47;;;18.70;99.90;;;;;;6492120;22;20004;-76
2023/10/09 00:56:44;;;;;;;16.33;6.57;;;18.70;99.90;;;;;;6490733;22;20014;-78
2023/10/09 00:59:20;;;;;;;20.80;6.65;;;18.70;99.90;;;;;;6492356;22;20420;-78
2023/10/09 01:01:56;;;;;;;10.70;6.32;;;18.70;99.90;;;;;;6492266;22;20000;-76
2023/10/09 01:04:29;;;;;;;10.75;5.50;;;18.50;99.90;;;;;;6490938;22;20023;-76
2023/10/09 01:10:10;;;;;;;10.90;6.47;;;18.60;99.90;;;;;;6472273;22;20004;-78
2023/10/09 01:12:44;;;;;;;;;;;18.60;99.90;;;;;;6492803;22;20003;-78
2023/10/09 01:15:35;;;;;;;15.88;7.10;;;18.60;99.90;;;;;;6490504;22;19899;-78
2023/10/09 01:18:07;;;;;;;17.73;6.95;;;18.50;99.90;;;;;;6491325;22;20444;-78
2023/10/09 01:20:45;;;;;;;15.18;6.38;;;18.50;99.90;;;;;;6491766;22;20014;-78
2023/10/09 01:23:16;;;;;;;10.70;6.28;;;18.40;99.90;;;;;;6490582;22;20058;-77
2023/10/09 01:25:49;;;;;;;14.05;6.78;;;18.10;99.90;;;;;;6491154;22;20015;-78
2023/10/09 01:28:20;;;;;;;12.40;6.03;;;18.10;99.90;;;;;;6489819;22;20000;-78
2023/10/09 01:30:51;;;;;;;16.10;6.70;;;18.00;99.90;;;;;;6490198;22;20440;-78
2023/10/09 01:33:23;;;;;;;8.88;5.72;;;17.90;99.90;;;;;;6488664;22;20004;-75
2023/10/09 01:35:59;;;;;;;15.70;5.97;;;17.90;99.90;;;;;;6490525;22;20000;-76
2023/10/09 01:38:40;;;;;;;9.18;5.95;;;18.00;99.90;;;;;;6490388;22;20470;-76
2023/10/09 01:41:15;;;;;;;12.90;6.60;;;17.80;99.90;;;;;;6490328;22;19995;-79
2023/10/09 01:43:50;;;;;;;15.02;6.40;;;17.70;99.90;;;;;;6490419;22;20073;-78
2023/10/09 01:46:22;;;;;;;12.25;5.93;;;17.60;99.90;;;;;;6491580;22;20065;-76
2023/10/09 01:48:53;;;;;;;16.17;6.63;;;17.70;99.90;;;;;;6491848;22;20000;-77
2023/10/09 01:51:24;;;;;;;12.60;5.80;;;17.50;99.90;;;;;;6490236;22;20112;-77
2023/10/09 01:53:56;;;;;;;13.38;5.93;;;17.60;99.90;;;;;;6491607;22;20000;-75
2023/10/09 01:56:28;;;;;;;12.10;6.03;;;17.50;99.90;;;;;;6491722;22;20087;-76
2023/10/09 01:59:05;;;;;;;14.13;6.25;;;17.50;99.90;;;;;;6491904;22;20054;-78
2023/10/09 02:01:40;;;;;;;13.90;5.68;;;17.40;99.90;;;;;;6491726;22;20134;-78
2023/10/09 02:04:14;;;;;;;11.27;5.28;;;17.40;99.90;;;;;;6491633;22;20007;-78
2023/10/09 02:06:45;;;;;;;8.68;5.50;;;17.30;99.90;;;;;;6491796;22;20034;-78
2023/10/09 02:09:22;;;;;;;11.13;6.00;;;17.30;99.90;;;;;;6490248;22;20000;-78
2023/10/09 02:11:52;;;;;;;11.50;6.13;;;17.30;99.90;;;;;;6489979;22;20004;-76
2023/10/09 02:14:24;;;;;;;11.68;5.75;;;17.20;99.90;;;;;;6491785;22;20007;-78
2023/10/09 02:17:07;;;;;;;11.52;5.50;;;17.20;99.90;;;;;;6489511;22;20062;-78
2023/10/09 02:19:42;;;;;;;10.18;5.32;;;17.10;99.90;;;;;;6491696;22;20002;-78
2023/10/09 02:22:13;;;;;;;11.48;6.13;;;17.10;99.90;;;;;;6490844;22;20011;-76
2023/10/09 02:27:36;;;;;;;10.45;5.88;;;17.10;99.90;;;;;;6490304;22;20442;-76
2023/10/09 02:30:51;;;;;;;8.30;5.85;;;17.20;99.90;;;;;;6488970;22;20317;-76
2023/10/09 02:33:08;;;;;;;14.68;6.97;;;17.20;99.90;;;;;;6478854;22;20078;-76
2023/10/09 02:35:42;;;;;;;10.25;5.45;;;17.10;99.90;;;;;;6490189;22;20533;-78
2023/10/09 02:38:17;;;;;;;9.95;5.85;;;17.20;99.90;;;;;;6488810;22;20010;-77
2023/10/09 02:43:44;;;;;;;9.93;6.07;;;17.10;99.90;;;;;;6491867;22;20559;-76
2023/10/09 02:46:18;;;;;;;8.52;5.18;;;17.00;99.90;;;;;;6489880;22;20386;-75
2023/10/09 02:48:52;;;;;;;7.53;4.88;;;17.00;99.90;;;;;;6489962;22;20051;-78
2023/10/09 02:54:18;;;;;;;11.00;5.35;;;16.80;99.90;;;;;;6493621;22;20003;-78
2023/10/09 02:57:05;;;;;;;8.23;5.65;;;16.90;99.90;;;;;;6491676;22;20450;-75
2023/10/09 02:59:38;;;;;;;10.63;6.03;;;17.10;99.90;;;;;;6491671;22;20432;-77
2023/10/09 03:02:10;;;;;;;10.18;7.00;;;17.00;99.90;;;;;;6493167;22;20031;-76
2023/10/09 03:04:41;;;;;;;8.98;7.68;;;17.00;99.90;;;;;;6491551;22;20022;-78
2023/10/09 03:07:15;;;;;;;10.60;8.00;;;16.90;99.90;;;;;;6491619;22;20127;-78
2023/10/09 03:09:45;;;;;;;10.20;8.63;;;17.00;99.90;;;;;;6493160;22;20423;-77
2023/10/09 03:12:18;;;;;;;10.07;7.90;;;17.10;99.90;;;;;;6493375;22;20004;-78
2023/10/09 03:14:50;;;;;;;8.10;6.22;;;17.00;99.90;;;;;;6491686;22;20304;-79
2023/10/09 03:17:22;;;;;;;9.30;7.03;;;17.00;99.90;;;;;;6492445;22;20019;-77
2023/10/09 03:19:54;;;;;;;12.30;6.22;;;17.00;99.90;;;;;;6492618;22;20010;-76
2023/10/09 03:22:25;;;;;;;10.82;5.75;;;17.00;99.90;;;;;;6491565;22;20000;-78
2023/10/09 03:24:56;;;;;;;10.93;5.75;;;17.10;99.90;;;;;;6491630;22;20746;-75
2023/10/09 03:27:26;;;;;;;7.40;5.45;;;17.00;99.90;;;;;;6491767;22;20360;-76
2023/10/09 03:29:57;;;;;;;10.15;4.97;;;17.10;99.90;;;;;;6490208;22;20415;-77
2023/10/09 03:32:28;;;;;;;9.30;4.78;;;17.00;99.90;;;;;;6492061;22;20000;-76
2023/10/09 03:35:00;;;;;;;7.53;5.22;;;17.00;99.90;;;;;;6490281;22;20008;-77
2023/10/09 03:37:34;;;;;;;8.27;5.35;;;17.00;99.90;;;;;;6492538;22;19999;-78
2023/10/09 03:40:15;;;;;;;10.38;5.22;;;17.00;99.90;;;;;;6493004;22;19999;-78
2023/10/09 03:42:46;;;;;;;7.72;4.93;;;17.10;99.90;;;;;;6490818;22;20028;-79
2023/10/09 03:45:35;;;;;;;10.73;4.97;;;17.10;99.90;;;;;;6493157;22;20102;-75
2023/10/09 03:48:11;;;;;;;9.07;4.68;;;17.20;99.90;;;;;;6492727;22;20040;-79
2023/10/09 03:50:43;;;;;;;6.20;4.80;;;17.30;99.90;;;;;;6491204;22;20038;-78
2023/10/09 03:53:14;;;;;;;7.57;4.93;;;17.10;99.90;;;;;;6491551;22;20004;-77
2023/10/09 03:55:44;;;;;;;12.80;5.03;;;17.10;99.90;;;;;;6492768;22;20010;-79
2023/10/09 03:58:18;;;;;;;8.65;5.30;;;17.20;99.90;;;;;;6493057;22;19996;-78
2023/10/09 04:00:50;;;;;;;7.28;4.55;;;17.20;99.90;;;;;;6492796;22;20473;-77
2023/10/09 04:03:22;;;;;;;7.38;4.80;;;17.10;99.90;;;;;;6491100;22;20010;-77
2023/10/09 04:05:53;;;;;;;7.40;4.45;;;17.00;99.90;;;;;;6492641;22;20011;-78
2023/10/09 04:08:29;;;;;;;7.30;4.18;;;17.20;99.90;;;;;;6492710;22;20328;-79
2023/10/09 04:11:04;;;;;;;7.63;5.32;;;17.10;99.90;;;;;;6492649;22;20004;-79
2023/10/09 04:13:34;;;;;;;10.38;4.95;;;17.10;99.90;;;;;;6490544;22;20458;-76
2023/10/09 04:16:26;;;;;;;8.52;5.32;;;17.20;99.90;;;;;;6491880;22;20007;-76
2023/10/09 04:18:57;;;;;;;8.10;5.68;;;17.20;99.90;;;;;;6491337;22;20412;-77
2023/10/09 04:21:34;;;;;;;6.97;4.93;;;17.10;99.90;;;;;;6489739;22;20003;-75
2023/10/09 04:26:46;;;;;;;10.48;5.35;;;17.20;99.90;;;;;;6501775;22;20008;-76
2023/10/09 04:29:26;;;;;;;8.10;5.30;;;17.20;99.90;;;;;;6489683;22;20011;-77
2023/10/09 04:32:00;;;;;;;11.93;6.50;;;17.10;99.90;;;;;;6491283;22;20073;-76
2023/10/09 04:34:48;;;;;;;9.38;6.53;;;17.20;99.90;;;;;;6492606;22;20014;-77
2023/10/09 04:37:37;;;;;;;6.90;6.15;;;17.10;99.90;;;;;;6492559;22;20035;-78
2023/10/09 04:40:48;;;;;;;9.55;6.53;;;17.20;99.90;;;;;;6492579;22;20004;-78
2023/10/09 04:43:20;;;;;;;9.45;6.43;;;17.10;99.90;;;;;;6492138;22;20053;-77
2023/10/09 04:48:45;;;;;;;12.02;7.82;;;17.20;99.90;;;;;;6492618;22;20011;-79
2023/10/09 04:51:34;;;;;;;8.15;6.80;;;17.20;99.90;;;;;;6492607;22;20416;-77
2023/10/09 04:54:14;;;;;;;8.15;7.38;;;17.10;99.90;;;;;;6492537;22;20296;-78
2023/10/09 04:56:53;;;;;;;8.93;7.75;;;17.20;99.90;;;;;;6492610;22;20000;-79
2023/10/09 04:59:25;;;;;;;14.43;7.32;;;17.10;99.90;;;;;;6492230;22;20408;-78
2023/10/09 05:01:59;;;;;;;10.90;7.13;;;17.20;99.90;;;;;;6492267;22;20000;-78
2023/10/09 05:07:23;;;;;;;8.48;7.68;;;17.10;99.90;;;;;;6475461;22;20004;-78
2023/10/09 05:10:16;;;;;;;12.23;8.00;;;17.10;99.90;;;;;;6490685;22;20049;-76
2023/10/09 05:12:56;;;;;;;14.00;7.60;;;17.10;99.90;;;;;;6491071;22;20329;-78
2023/10/09 05:15:34;;;;;;;12.77;8.95;;;17.10;99.90;;;;;;6490413;22;20003;-76
2023/10/09 05:18:09;;;;;;;12.55;7.43;;;17.00;99.90;;;;;;6491002;22;20133;-77
2023/10/09 05:21:29;;;;;;;9.90;8.85;;;17.20;99.90;;;;;;6492170;22;20449;-79
2023/10/09 05:23:49;;;;;;;11.93;8.50;;;17.10;99.90;;;;;;6492232;22;19999;-79
2023/10/09 05:29:48;;;;;;;11.63;7.25;;;17.20;99.90;;;;;;6457882;23;20000;-78
2023/10/09 05:32:27;;;;;;;10.10;7.40;;;17.20;99.90;;;;;;6456939;23;20015;-76
2023/10/09 05:37:34;;;;;;;12.02;7.03;;;17.20;99.90;;;;;;6492520;22;20014;-78
2023/10/09 05:42:59;;;;;;;12.38;8.23;;;17.10;99.90;;;;;;6502707;22;20007;-78
2023/10/09 05:46:07;;;;;;;11.10;7.43;;;17.00;99.90;;;;;;6491877;22;20011;-78
2023/10/09 06:05:04;;;;;;;9.43;7.10;;;17.20;99.90;;;;;;6491674;22;20069;-76
2023/10/09 06:07:40;;;;;;;11.40;7.05;;;17.30;99.90;;;;;;6489706;22;20097;-77
2023/10/09 06:10:32;;;;;;;8.90;6.32;;;17.20;99.90;;;;;;6491397;22;20055;-76
2023/10/09 06:13:03;;;;;;;11.35;7.07;;;17.20;99.90;;;;;;6490380;22;20043;-77
2023/10/09 06:18:26;;;;;;;;;;;17.00;99.90;;;;;;6491717;22;20099;-77
2023/10/09 06:26:36;;;;;;;11.65;6.13;;;17.20;99.90;;;;;;6490799;22;20093;-78
2023/10/09 06:29:16;;;;;;;9.70;6.88;;;17.20;99.90;;;;;;6491543;22;20007;-76
2023/10/09 06:32:15;;;;;;;9.40;5.75;;;17.30;99.90;;;;;;6493412;22;20301;-77
2023/10/09 06:35:21;;;;;;;11.00;6.00;;;17.20;99.90;;;;;;6493581;22;20000;-76
2023/10/09 06:48:55;;;;;;;10.90;6.07;;;17.30;99.90;;;;;;6493084;22;20011;-76
2023/10/09 06:59:15;;;;;;;8.63;5.80;;;17.10;99.90;;;;;;6493771;22;20039;-75
2023/10/09 07:01:51;;;;;;;6.38;5.78;;;17.30;99.90;;;;;;6492467;22;20550;-76
2023/10/09 07:05:10;;;;;;;7.80;5.45;;;17.30;99.90;;;;;;6492368;22;20343;-75
2023/10/09 07:07:20;;;;;;;9.13;6.15;;;17.20;99.90;;;;;;6486598;22;20323;-77
2023/10/09 07:12:44;;;;;;;10.37;6.47;;;17.40;99.90;;;;;;6493301;22;20015;-76
2023/10/09 07:18:18;;;;;;;10.00;5.93;;;17.10;99.90;;;;;;6492669;22;20161;-75
2023/10/09 07:20:58;;;;;;;12.20;6.65;;;17.20;99.90;;;;;;6491353;22;20320;-77
2023/10/09 07:23:32;;;;;;;15.90;6.18;;;17.30;99.90;;;;;;6491868;22;20482;-77
2023/10/09 07:26:36;;;;;;;8.85;6.35;;;17.30;99.90;;;;;;6493036;22;20035;-76
2023/10/09 07:29:01;;;;;;;11.88;6.13;;;17.30;99.90;;;;;;6492622;22;20000;-78
2023/10/09 07:31:39;;;;;;;12.73;6.78;;;17.30;99.90;;;;;;6493326;22;20004;-76
2023/10/09 07:34:30;;;;;;;8.43;6.13;;;17.40;99.90;;;;;;6492968;22;20000;-76
2023/10/09 07:37:03;;;;;;;10.60;6.78;;;17.40;99.90;;;;;;6492998;22;20319;-79
2023/10/09 07:39:34;;;;;;;13.23;6.82;;;17.40;99.90;;;;;;6492374;22;19995;-75
2023/10/09 07:42:26;;;;;;;9.90;6.47;;;17.40;99.90;;;;;;6492407;22;20431;-79
2023/10/09 07:44:57;;;;;;;9.77;7.13;;;17.40;99.90;;;;;;6490670;22;20016;-77
2023/10/09 07:50:21;;;;;;;12.10;8.60;;;17.20;99.90;;;;;;6492702;22;20374;-76
2023/10/09 07:53:14;;;;;;;11.00;6.85;;;17.30;99.90;;;;;;6492740;22;19999;-77
2023/10/09 07:55:53;;;;;;;10.45;7.30;;;17.20;99.90;;;;;;6492118;22;20003;-76
2023/10/09 07:58:25;;;;;;;11.90;7.25;;;17.30;99.90;;;;;;6492484;22;20004;-75
2023/10/09 08:01:39;;;;;;;12.20;6.35;;;17.30;99.90;;;;;;6489607;22;20427;-75
2023/10/09 08:04:11;;;;;;;10.40;7.43;;;17.30;99.90;;;;;;6479548;22;20435;-79
2023/10/09 08:06:42;;;;;;;8.40;5.57;;;17.20;99.90;;;;;;6491016;22;20019;-75
2023/10/09 08:12:13;;;;;;;10.52;6.63;;;17.20;99.90;;;;;;6491122;22;20000;-75
2023/10/09 08:14:45;;;;;;;11.73;7.88;;;17.10;99.90;;;;;;6492145;22;20007;-76
2023/10/09 08:17:17;;;;;;;11.02;7.53;;;17.00;99.90;;;;;;6492184;22;20336;-78
2023/10/09 08:19:55;;;;;;;14.75;7.65;;;17.20;99.90;;;;;;6492572;22;20087;-79
2023/10/09 08:25:02;;;;;;;10.23;7.30;;;17.30;99.90;;;;;;6501945;22;20545;-75
2023/10/09 08:33:39;;;;;;;10.57;5.85;;;17.20;99.90;;;;;;6502907;22;20006;-74
2023/10/09 08:36:01;;;;;;;13.15;6.88;;;17.40;99.90;;;;;;6491414;22;20003;-74
2023/10/09 08:38:34;;;;;;;12.10;6.13;;;17.40;99.90;;;;;;6490231;22;20003;-74
2023/10/09 08:41:22;;;;;;;8.73;5.35;;;17.50;99.90;;;;;;6491065;22;20008;-74
2023/10/09 08:43:56;;;;;;;7.70;5.25;;;17.50;99.90;;;;;;6491802;22;20624;-75
2023/10/09 08:46:29;;;;;;;11.63;5.90;;;17.50;99.90;;;;;;6490069;22;20051;-74
2023/10/09 08:49:02;;;;;;;8.32;5.72;;;17.40;99.90;;;;;;6490368;22;20003;-79
2023/10/09 08:51:40;;;;;;;13.95;6.40;;;17.50;99.90;;;;;;6491621;22;20003;-78
2023/10/09 08:54:14;;;;;;;10.25;5.47;;;17.50;99.90;;;;;;6490133;22;20451;-79
2023/10/09 08:56:51;;;;;;;10.73;5.18;;;17.50;99.90;;;;;;6490531;22;20019;-78
2023/10/09 08:59:24;;;;;;;10.27;5.57;;;17.50;99.90;;;;;;6490784;22;20000;-79
2023/10/09 09:01:59;;;;;;;12.60;5.85;;;17.50;99.90;;;;;;6490420;22;20010;-75
2023/10/09 09:04:40;;;;;;;11.65;6.43;;;17.40;99.90;;;;;;6490293;22;20004;-79
2023/10/09 09:07:26;;;;;;;7.30;5.45;;;17.60;99.90;;;;;;6488804;22;20445;-78
2023/10/09 09:10:21;;;;;;;9.75;5.47;;;17.40;99.90;;;;;;6490456;22;20004;-77
2023/10/09 09:13:00;;;;;;;9.98;5.68;;;17.50;99.90;;;;;;6490565;22;19999;-76
2023/10/09 09:15:31;;;;;;;9.30;4.95;;;17.60;99.90;;;;;;6491771;22;20079;-78
2023/10/09 09:18:08;;;;;;;7.70;4.90;;;17.60;99.90;;;;;;6489565;22;20024;-75
2023/10/09 09:20:45;;;;;;;9.65;5.10;;;17.70;99.90;;;;;;6489044;22;20011;-76
2023/10/09 09:23:16;;;;;;;8.68;5.63;;;17.60;99.90;;;;;;6491049;22;20004;-75
2023/10/09 09:25:50;;;;;;;10.02;5.63;;;17.70;99.90;;;;;;6491274;22;20015;-79
2023/10/09 09:28:21;;;;;;;12.32;6.88;;;17.90;99.90;;;;;;6491581;22;20342;-77
2023/10/09 09:30:51;;;;;;;13.30;8.05;;;18.00;99.90;;;;;;6491594;22;20004;-76
2023/10/09 09:33:27;;;;;;;12.85;8.85;;;18.00;99.90;;;;;;6490582;22;20355;-74
2023/10/09 09:36:02;;;;;;;11.43;8.70;;;17.90;99.90;;;;;;6489877;22;20085;-77
2023/10/09 09:39:19;;;;;;;10.98;9.00;;;18.00;99.90;;;;;;6490039;22;20087;-78
2023/10/09 09:41:33;;;;;;;10.23;9.20;;;18.00;99.90;;;;;;6490006;22;20004;-76
2023/10/09 09:44:05;;;;;;;12.13;10.52;;;18.20;99.90;;;;;;6491649;22;20003;-78
2023/10/09 09:46:38;;;;;;;11.07;9.55;;;18.30;99.90;;;;;;6491324;22;20020;-75
2023/10/09 09:49:21;;;;;;;11.98;9.65;;;18.30;99.90;;;;;;6491992;22;20483;-77
2023/10/09 09:51:52;;;;;;;9.27;8.20;;;18.50;99.90;;;;;;6490277;22;20008;-78
2023/10/09 09:54:24;;;;;;;11.05;6.93;;;18.50;99.90;;;;;;6491793;22;20003;-75
2023/10/09 09:56:56;;;;;;;11.32;6.38;;;18.40;99.90;;;;;;6491677;22;20003;-74
2023/10/09 09:59:30;;;;;;;10.90;5.93;;;18.60;99.90;;;;;;6491721;22;20324;-78
2023/10/09 10:02:08;;;;;;;8.27;6.53;;;18.60;99.90;;;;;;6492961;22;20010;-76
2023/10/09 10:04:42;;;;;;;10.88;5.93;;;18.60;99.90;;;;;;6493458;22;20008;-75
2023/10/09 10:07:16;;;;;;;7.82;5.63;;;18.40;99.90;;;;;;6493857;22;20451;-76
2023/10/09 10:09:54;;;;;;;8.27;7.28;;;18.40;99.90;;;;;;6493780;22;20004;-74
2023/10/09 10:12:48;;;;;;;8.43;6.78;;;18.30;99.90;;;;;;6493595;22;20004;-78
2023/10/09 10:15:18;;;;;;;7.85;6.80;;;18.40;99.90;;;;;;6474894;22;20031;-74
2023/10/09 10:17:59;;;;;;;7.07;6.40;;;18.40;99.90;;;;;;6493441;22;20020;-78
2023/10/09 10:20:31;;;;;;;;;;;18.40;99.90;;;;;;6494137;22;20010;-78
2023/10/09 10:23:20;;;;;;;10.82;6.05;;;18.50;99.90;;;;;;6492139;22;19910;-75
2023/10/09 10:25:59;;;;;;;10.48;6.22;;;18.40;99.90;;;;;;6494152;22;20011;-79
2023/10/09 10:28:42;;;;;;;8.68;6.13;;;18.50;99.90;;;;;;6491913;22;20007;-77
2023/10/09 10:31:13;;;;;;;9.02;5.78;;;18.50;99.90;;;;;;6491948;22;20014;-76
2023/10/09 10:33:54;;;;;;;14.57;5.93;;;18.50;99.90;;;;;;6491918;22;20000;-74
2023/10/09 10:36:29;;;;;;;9.25;6.80;;;18.50;99.90;;;;;;6491851;22;20004;-78
2023/10/09 10:39:05;;;;;;;7.93;6.22;;;18.60;99.90;;;;;;6491883;22;19996;-75
2023/10/09 10:41:39;;;;;;;7.15;5.45;;;18.50;99.90;;;;;;6491933;22;20004;-75
2023/10/09 10:44:45;;;;;;;10.70;6.38;;;18.60;99.90;;;;;;6491891;22;20000;-79
2023/10/09 10:47:32;;;;;;;6.40;5.30;;;18.50;99.90;;;;;;6483825;22;20050;-79
2023/10/09 10:50:34;;;;;;;7.63;6.88;;;18.00;99.90;;;;;;6493516;22;20280;-78
2023/10/09 10:53:14;;;;;;;14.05;6.75;;;18.10;99.90;;;;;;6494403;22;20003;-79
2023/10/09 10:56:17;;;;;;;7.82;7.07;;;18.00;99.90;;;;;;6493509;22;20003;-80
2023/10/09 11:01:58;;;;;;;9.50;7.30;;;18.20;99.90;;;;;;6505361;22;20054;-80
2023/10/09 11:07:12;;;;;;;9.32;7.22;;;18.30;99.90;;;;;;6495133;22;20468;-80
2023/10/09 11:12:39;;;;;;;10.60;7.13;;;18.20;99.90;;;;;;6505191;22;20106;-79
2023/10/09 11:18:25;;;;;;;10.63;6.50;;;18.70;99.90;;;;;;6494649;22;20023;-80
2023/10/09 11:23:53;;;;;;;11.98;6.20;;;18.50;99.90;;;;;;6495213;22;20008;-79
2023/10/09 11:26:26;;;;;;;12.65;6.95;;;18.40;99.90;;;;;;6493970;22;20038;-79
2023/10/09 11:29:23;;;;;;;10.35;5.70;;;18.10;99.90;;;;;;6494448;22;19996;-80
2023/10/09 11:32:06;;;;;;;7.43;4.72;;;18.00;99.90;;;;;;6494307;22;20004;-80
2023/10/09 11:34:37;;;;;;;9.60;4.90;;;17.90;99.90;;;;;;6492672;22;20459;-79
2023/10/09 11:37:11;;;;;;;8.15;5.18;;;18.00;99.90;;;;;;6494102;22;20003;-79
2023/10/09 11:39:52;;;;;;;6.63;4.68;;;17.90;99.90;;;;;;6494392;22;20013;-80
2023/10/09 11:42:48;;;;;;;6.70;4.95;;;18.30;99.90;;;;;;6494304;22;20046;-80
2023/10/09 11:45:37;;;;;;;8.20;4.65;;;18.30;99.90;;;;;;6494703;22;20023;-79
2023/10/09 11:53:46;;;;;;;5.88;4.40;;;18.90;99.90;;;;;;6494407;22;20075;-79
2023/10/09 11:56:19;;;;;;;11.82;5.47;;;19.10;99.90;;;;;;6492818;22;20000;-79
2023/10/09 11:58:51;;;;;;;9.25;5.63;;;19.40;99.90;;;;;;6493001;22;20371;-79
2023/10/09 12:01:23;;;;;;;12.88;6.00;;;19.60;99.90;;;;;;6494330;22;20022;-80
2023/10/09 12:03:53;;;;;;;9.38;6.18;;;19.90;99.90;;;;;;6492542;22;20003;-79
2023/10/09 12:06:32;;;;;;;14.48;6.95;;;19.80;99.90;;;;;;6492579;22;20462;-80
2023/10/09 12:09:05;;;;;;;9.70;7.72;;;19.90;99.90;;;;;;6494478;22;20446;-79
2023/10/09 12:11:36;;;;;;;13.45;8.75;;;19.50;99.90;;;;;;6494126;22;20038;-80
2023/10/09 12:14:07;;;;;;;9.75;7.75;;;19.60;99.90;;;;;;6494186;22;20332;-80
2023/10/09 12:16:44;;;;;;;9.45;7.53;;;19.80;99.90;;;;;;6493868;22;20008;-80
2023/10/09 12:19:15;;;;;;;8.00;6.55;;;19.90;99.90;;;;;;6492515;22;20379;-80
2023/10/09 12:21:45;;;;;;;11.52;7.60;;;19.90;99.90;;;;;;6492379;22;20003;-80
2023/10/09 12:24:18;;;;;;;9.77;6.95;;;20.00;99.90;;;;;;6491650;22;20500;-79
2023/10/09 12:26:52;;;;;;;9.45;6.88;;;20.20;99.90;;;;;;6493921;22;20008;-80
2023/10/09 12:29:24;;;;;;;8.52;5.10;;;20.20;99.90;;;;;;6492379;22;20314;-79
2023/10/09 12:31:58;;;;;;;7.15;6.25;;;20.20;99.90;;;;;;6492041;22;20014;-79
2023/10/09 12:34:30;;;;;;;8.07;5.65;;;19.70;99.90;;;;;;6493608;22;20003;-80
2023/10/09 12:37:01;;;;;;;7.38;6.07;;;19.30;99.90;;;;;;6492146;22;20031;-80
2023/10/09 12:39:40;;;;;;;9.48;5.88;;;19.30;99.90;;;;;;6492372;22;20038;-79
2023/10/09 12:42:11;;;;;;;12.52;6.40;;;19.60;99.90;;;;;;6494009;22;20008;-79
2023/10/09 12:44:42;;;;;;;9.13;6.30;;;19.40;99.90;;;;;;6493739;22;20094;-79
2023/10/09 12:47:13;;;;;;;7.80;5.85;;;19.70;99.90;;;;;;6493767;22;20039;-79
2023/10/09 12:49:44;;;;;;;7.40;5.82;;;19.90;99.90;;;;;;6492362;22;20007;-79
2023/10/09 12:52:19;;;;;;;11.45;6.65;;;20.40;99.90;;;;;;6493825;22;20313;-79
2023/10/09 12:54:50;;;;;;;11.75;6.07;;;20.20;99.90;;;;;;6492375;22;20011;-79
2023/10/09 12:57:21;;;;;;;8.80;5.93;;;20.00;99.90;;;;;;6493865;22;20474;-79
2023/10/09 12:59:53;;;;;;;10.27;6.50;;;20.00;99.90;;;;;;6491803;22;20007;-79
2023/10/09 13:02:29;;;;;;;7.32;5.90;;;19.80;99.90;;;;;;6492294;22;20003;-79
2023/10/09 13:05:03;;;;;;;7.65;5.55;;;19.30;99.90;;;;;;6493531;22;20423;-80
2023/10/09 13:07:34;;;;;;;6.90;5.88;;;19.90;99.90;;;;;;6492148;22;20004;-80
2023/10/09 13:10:08;;;;;;;5.72;5.15;;;20.10;99.90;;;;;;6493654;22;20496;-79
2023/10/09 13:12:41;;;;;;;8.43;5.72;;;19.80;99.90;;;;;;6493609;22;20003;-80
2023/10/09 13:15:13;;;;;;;10.15;5.90;;;19.90;99.90;;;;;;6493665;22;20010;-80
2023/10/09 13:17:44;;;;;;;10.13;5.78;;;20.20;99.90;;;;;;6492900;22;20094;-79
2023/10/09 13:20:15;;;;;;;10.52;6.80;;;20.20;99.90;;;;;;6492991;22;20090;-80
2023/10/09 13:22:47;;;;;;;9.40;7.43;;;20.20;99.90;;;;;;6493325;22;20092;-80
2023/10/09 13:25:24;;;;;;;8.23;7.28;;;19.90;99.90;;;;;;6491598;22;20098;-79
2023/10/09 13:27:55;;;;;;;9.25;7.35;;;20.10;99.90;;;;;;6491640;22;20004;-79
2023/10/09 13:30:26;;;;;;;8.07;6.65;;;19.80;99.90;;;;;;6491645;22;20029;-80
2023/10/09 13:32:59;;;;;;;7.90;6.40;;;20.10;99.90;;;;;;6491715;22;20011;-80
2023/10/09 13:35:37;;;;;;;11.25;8.00;;;20.30;99.90;;;;;;6493213;22;20087;-80
2023/10/09 13:38:09;;;;;;;11.73;10.48;;;20.20;99.90;;;;;;6491774;22;20031;-80
2023/10/09 13:40:41;;;;;;;11.40;9.13;;;20.20;99.90;;;;;;6493126;22;20004;-79
2023/10/09 13:43:16;;;;;;;10.80;9.80;;;20.40;99.90;;;;;;6493466;22;20354;-79
2023/10/09 13:45:49;;;;;;;11.82;8.52;;;20.00;99.90;;;;;;6491743;22;20020;-80
2023/10/09 13:48:20;;;;;;;14.15;8.68;;;19.50;99.90;;;;;;6493085;22;20174;-79
2023/10/09 13:50:58;;;;;;;9.02;8.20;;;19.80;99.90;;;;;;6491431;22;20039;-80
2023/10/09 13:53:29;;;;;;;9.85;7.85;;;19.50;99.90;;;;;;6493403;22;20004;-80
2023/10/09 13:56:00;;;;;;;10.05;6.75;;;19.30;99.90;;;;;;6491598;22;20035;-79
2023/10/09 13:58:31;;;;;;;8.27;7.18;;;18.80;99.90;;;;;;6493043;22;20053;-79
2023/10/09 14:01:08;;;;;;;10.25;6.40;;;19.40;99.90;;;;;;6491383;22;20539;-80
2023/10/09 14:03:38;;;;;;;7.78;6.53;;;19.60;99.90;;;;;;6506361;22;20011;-81
2023/10/09 14:06:12;;;;;;;8.07;7.22;;;20.00;99.90;;;;;;6491410;22;20348;-81
2023/10/09 14:08:44;;;;;;;8.27;6.25;;;19.20;99.90;;;;;;6493131;22;20006;-81
2023/10/09 14:11:15;;;;;;;10.05;6.63;;;18.80;99.90;;;;;;6493258;22;20024;-81
2023/10/09 14:13:48;;;;;;;8.52;7.75;;;19.40;99.90;;;;;;6491392;22;20007;-81
2023/10/09 14:16:27;;;;;;;7.35;6.70;;;19.00;99.90;;;;;;6491384;22;20011;-81
2023/10/09 14:18:59;;;;;;;8.25;6.82;;;19.50;99.90;;;;;;6493137;22;20003;-81
2023/10/09 14:21:30;;;;;;;9.25;6.95;;;19.30;99.90;;;;;;6493299;22;20053;-81
2023/10/09 14:24:00;;;;;;;10.25;8.60;;;19.30;99.90;;;;;;6493024;22;20008;-81
2023/10/09 14:26:34;;;;;;;8.73;7.35;;;18.90;99.90;;;;;;6491401;22;20391;-81
2023/10/09 14:29:06;;;;;;;15.45;8.65;;;19.00;99.90;;;;;;6492958;22;19996;-80
2023/10/09 14:31:38;;;;;;;10.63;7.50;;;18.90;99.90;;;;;;6491036;22;20057;-81
2023/10/09 14:34:09;;;;;;;9.93;9.02;;;19.10;99.90;;;;;;6492552;22;20007;-81
2023/10/09 14:36:43;;;;;;;11.95;10.75;;;19.20;99.90;;;;;;6492909;22;20057;-79
2023/10/09 14:39:18;;;;;;;11.52;10.65;;;19.50;99.90;;;;;;6492730;22;19999;-79
2023/10/09 14:41:50;;;;;;;9.90;8.82;;;19.60;99.90;;;;;;6491422;22;20305;-80
2023/10/09 14:44:23;;;;;;;12.68;11.05;;;19.40;99.90;;;;;;6492758;22;19999;-81
2023/10/09 14:46:55;;;;;;;11.38;10.57;;;19.00;99.90;;;;;;6492725;22;20039;-80
2023/10/09 14:49:26;;;;;;;9.25;7.75;;;18.50;99.90;;;;;;6494546;22;20071;-81
2023/10/09 14:51:59;;;;;;;11.98;7.47;;;18.40;99.90;;;;;;6493186;22;20050;-81
2023/10/09 14:54:29;;;;;;;8.48;7.10;;;18.30;99.90;;;;;;6495050;22;19996;-81
2023/10/09 14:57:00;;;;;;;8.90;7.82;;;18.30;99.90;;;;;;6494907;22;20007;-80
2023/10/09 14:59:31;;;;;;;8.60;6.63;;;18.10;99.90;;;;;;6494979;22;19996;-81
2023/10/09 15:02:02;;;;;;;11.05;5.28;;;17.90;99.90;;;;;;6494626;22;20561;-80
2023/10/09 15:04:36;;;;;;;6.55;5.95;;;17.80;99.90;;;;;;6494321;22;20003;-81
2023/10/09 15:07:07;;;;;;;8.25;6.60;;;17.60;99.90;;;;;;6494976;22;20003;-80
2023/10/09 15:09:39;;;;;;;8.52;7.63;;;15.50;99.90;;;;;;6492902;22;20327;-80
2023/10/09 15:12:11;;;;;;;11.70;6.57;;;17.30;99.90;;;;;;6493456;22;20007;-80
2023/10/09 15:14:44;;;;;;;9.43;7.72;;;17.10;99.90;;;;;;6493278;22;20061;-81
2023/10/09 15:17:16;;;;;;;12.40;8.63;;;17.00;99.90;;;;;;6493299;22;20102;-80
2023/10/09 15:19:46;;;;;;;7.22;6.35;;;16.80;99.90;;;;;;6494542;22;20078;-80
2023/10/09 15:22:17;;;;;;;8.35;6.88;;;16.50;99.90;;;;;;6494837;22;20019;-80
2023/10/09 15:24:48;;;;;;;5.03;4.63;;;16.30;99.90;;;;;;6493087;22;20042;-80